Time;durP1;ratioP1;P1;durP2;ratioP2;P2;SDS_P1;SDS_P2;PMS_P1;PMS_P2;Temp;Humidity;BMP_temperature;BMP_pressure;BME280_temperature;BME280_humidity;BME280_pressure;Samples;Min_cycle;Max_cycle;Signal;HPM_P1;HPM_P2
2022/06/07 00:02:29;;;;;;;45.45;28.77;;;;;;;12.20;100.00;101294.00;5044264;28;20091;-56
2022/06/07 00:04:54;;;;;;;43.60;28.35;;;;;;;12.21;100.00;101286.84;5040461;28;20045;-55
2022/06/07 00:07:20;;;;;;;45.72;30.08;;;;;;;12.23;100.00;101292.81;5042481;28;20499;-53
2022/06/07 00:09:46;;;;;;;42.65;28.55;;;;;;;12.23;100.00;101285.66;5042709;28;20087;-57
2022/06/07 00:12:12;;;;;;;48.08;29.95;;;;;;;12.23;100.00;101287.50;5041594;28;20525;-54
2022/06/07 00:14:37;;;;;;;49.38;30.52;;;;;;;12.22;100.00;101281.34;5042578;28;20032;-54
2022/06/07 00:17:05;;;;;;;50.22;30.42;;;;;;;12.21;100.00;101274.34;5042158;28;20033;-55
2022/06/07 00:19:31;;;;;;;45.53;31.10;;;;;;;12.21;100.00;101278.84;5043637;28;20035;-55
2022/06/07 00:21:56;;;;;;;49.72;32.03;;;;;;;12.21;100.00;101282.34;5044529;28;20021;-57
2022/06/07 00:24:22;;;;;;;52.28;32.63;;;;;;;12.21;100.00;101276.19;5043338;28;20033;-53
2022/06/07 00:26:47;;;;;;;53.15;33.65;;;;;;;12.21;100.00;101271.69;5037982;28;20484;-56
2022/06/07 00:29:13;;;;;;;54.28;35.17;;;;;;;12.23;100.00;101268.84;5047924;28;20028;-56
2022/06/07 00:31:42;;;;;;;53.35;35.28;;;;;;;12.25;100.00;101264.19;5041811;28;20404;-56
2022/06/07 00:34:09;;;;;;;53.58;33.47;;;;;;;12.26;100.00;101263.19;5045158;28;20550;-56
2022/06/07 00:36:35;;;;;;;53.75;34.97;;;;;;;12.26;100.00;101265.84;5044298;28;20270;-55
2022/06/07 00:39:01;;;;;;;52.10;34.70;;;;;;;12.27;100.00;101259.53;5042359;28;20162;-54
2022/06/07 00:41:26;;;;;;;57.17;34.53;;;;;;;12.28;100.00;101259.34;5044368;28;20104;-52
2022/06/07 00:44:25;;;;;;;56.10;35.15;;;;;;;12.30;100.00;101259.19;5046560;28;20039;-55
2022/06/07 00:46:54;;;;;;;61.97;34.85;;;;;;;12.31;100.00;101255.50;5046743;28;20021;-55
2022/06/07 00:49:20;;;;;;;;;;;;;;;12.33;100.00;101261.50;5047959;28;20037;-54
2022/06/07 00:51:46;;;;;;;60.03;37.50;;;;;;;12.33;100.00;101259.66;5043556;28;19927;-53
2022/06/07 00:54:38;;;;;;;58.97;36.50;;;;;;;12.36;100.00;101261.97;5046802;28;20469;-55
2022/06/07 00:57:04;;;;;;;64.68;38.47;;;;;;;12.36;100.00;101251.31;5042332;28;20059;-54
2022/06/07 00:59:30;;;;;;;56.28;36.60;;;;;;;12.38;100.00;101256.47;5040625;28;20025;-56
2022/06/07 01:01:56;;;;;;;60.60;37.13;;;;;;;12.38;100.00;101246.66;5045060;28;20531;-56
2022/06/07 01:04:23;;;;;;;60.83;38.00;;;;;;;12.38;100.00;101240.50;5043151;28;20130;-56
2022/06/07 01:12:17;;;;;;;57.17;36.50;;;;;;;12.38;100.00;101243.16;5045888;28;20088;-56
2022/06/07 01:14:42;;;;;;;59.40;35.58;;;;;;;12.38;100.00;101240.50;5046532;28;20029;-53
2022/06/07 01:17:07;;;;;;;53.47;34.25;;;;;;;12.40;100.00;101243.81;5044851;28;20032;-54
2022/06/07 01:19:33;;;;;;;58.03;35.30;;;;;;;12.40;100.00;101241.97;5043597;28;20033;-53
2022/06/07 01:21:58;;;;;;;52.80;33.78;;;;;;;12.41;100.00;101238.31;5044961;28;20540;-56
2022/06/07 01:24:23;;;;;;;57.28;35.53;;;;;;;12.42;100.00;101225.81;5046414;28;20029;-56
2022/06/07 01:26:50;;;;;;;53.28;34.30;;;;;;;12.43;100.00;101230.16;5042696;28;20032;-53
2022/06/07 01:29:16;;;;;;;53.42;34.60;;;;;;;12.43;99.91;101227.47;5043550;28;20098;-56
2022/06/07 01:31:41;;;;;;;53.47;33.95;;;;;;;12.43;100.00;101224.00;5045929;28;20037;-54
2022/06/07 01:34:07;;;;;;;52.17;33.95;;;;;;;12.42;99.85;101228.50;5045784;28;20288;-56
2022/06/07 01:36:33;;;;;;;50.35;32.95;;;;;;;12.43;99.74;101227.47;5044243;28;20036;-56
2022/06/07 01:41:54;;;;;;;50.72;32.60;;;;;;;12.43;99.61;101210.69;5043614;28;20606;-56
2022/06/07 01:44:31;;;;;;;47.92;32.00;;;;;;;12.43;99.63;101211.50;5044740;28;20407;-56
2022/06/07 01:46:59;;;;;;;45.42;31.20;;;;;;;12.43;99.49;101208.00;5041757;28;20623;-56
2022/06/07 01:49:24;;;;;;;49.00;30.15;;;;;;;12.43;98.88;101200.84;5045004;28;20061;-52
2022/06/07 01:51:51;;;;;;;43.55;31.52;;;;;;;12.44;98.96;101199.88;5046236;28;20492;-55
2022/06/07 01:54:17;;;;;;;44.90;29.58;;;;;;;12.44;98.83;101197.22;5044130;28;20033;-56
2022/06/07 01:56:42;;;;;;;50.13;31.27;;;;;;;12.45;98.37;101206.88;5040671;28;20043;-56
2022/06/07 01:59:08;;;;;;;45.88;30.02;;;;;;;12.44;98.57;101207.03;5043464;28;20443;-53
2022/06/07 02:01:34;;;;;;;39.90;29.08;;;;;;;12.44;98.10;101204.38;5045936;28;20028;-55
2022/06/07 02:03:59;;;;;;;41.40;28.65;;;;;;;12.43;98.18;101200.84;5042342;28;20033;-53
2022/06/07 02:06:25;;;;;;;41.88;29.50;;;;;;;12.42;98.05;101204.50;5044801;28;20037;-56
2022/06/07 02:08:51;;;;;;;40.38;26.67;;;;;;;12.40;97.78;101204.69;5041447;28;20028;-55
2022/06/07 02:11:21;;;;;;;38.08;26.13;;;;;;;12.40;97.63;101201.19;5041379;28;20040;-54
2022/06/07 02:13:47;;;;;;;31.65;23.40;;;;;;;12.38;97.24;101204.03;5046226;28;20032;-55
2022/06/07 02:16:13;;;;;;;35.28;24.55;;;;;;;12.38;96.28;101204.03;5044322;28;20032;-54
2022/06/07 02:18:39;;;;;;;28.73;22.65;;;;;;;12.37;96.27;101197.06;5039449;28;20036;-55
2022/06/07 02:21:06;;;;;;;30.33;22.10;;;;;;;12.36;95.95;101191.91;5045550;28;20166;-53
2022/06/07 02:23:33;;;;;;;30.63;21.67;;;;;;;12.35;95.79;101192.91;5045306;28;20024;-53
2022/06/07 02:26:28;;;;;;;26.48;19.98;;;;;;;12.32;95.70;101186.09;5044338;28;20028;-54
2022/06/07 02:29:00;;;;;;;28.38;20.80;;;;;;;12.31;95.72;101192.44;5039451;28;20052;-55
2022/06/07 02:31:28;;;;;;;28.25;19.83;;;;;;;12.29;95.33;101191.78;5040205;28;20030;-56
2022/06/07 02:33:57;;;;;;;25.42;18.33;;;;;;;12.28;94.92;101183.97;5040865;28;20037;-56
2022/06/07 02:36:23;;;;;;;25.42;19.13;;;;;;;12.28;94.72;101186.63;5042883;28;20036;-55
2022/06/07 02:38:49;;;;;;;29.58;18.50;;;;;;;12.27;94.50;101188.44;5036470;28;20404;-55
2022/06/07 02:41:19;;;;;;;27.70;18.35;;;;;;;12.26;94.32;101185.97;5043768;28;20017;-54
2022/06/07 02:43:45;;;;;;;26.98;18.50;;;;;;;12.24;94.71;101182.66;5034992;28;20052;-55
2022/06/07 02:46:10;;;;;;;27.25;17.48;;;;;;;12.22;94.26;101172.16;5040839;28;20025;-55
2022/06/07 02:48:36;;;;;;;25.10;17.20;;;;;;;12.20;94.38;101176.84;5043632;28;20028;-55
2022/06/07 02:51:01;;;;;;;26.33;17.38;;;;;;;12.20;94.43;101176.84;5040232;28;20025;-56
2022/06/07 02:53:26;;;;;;;24.13;17.60;;;;;;;12.17;94.18;101177.19;5044153;28;20484;-55
2022/06/07 02:55:52;;;;;;;23.27;16.80;;;;;;;12.18;93.95;101180.69;5041615;28;20564;-55
2022/06/07 02:58:17;;;;;;;25.88;17.48;;;;;;;12.16;94.23;101177.38;5043642;28;20021;-55
2022/06/07 03:00:43;;;;;;;22.20;16.65;;;;;;;12.13;93.92;101178.50;5042931;28;20036;-53
2022/06/07 03:03:09;;;;;;;24.75;17.33;;;;;;;12.11;93.71;101177.84;5045089;28;20025;-53
2022/06/07 03:05:34;;;;;;;20.52;15.73;;;;;;;12.11;93.81;101183.19;5042704;28;20105;-56
2022/06/07 03:07:59;;;;;;;21.27;15.27;;;;;;;12.07;93.82;101173.88;5040466;28;20032;-56
2022/06/07 03:10:25;;;;;;;23.20;16.13;;;;;;;12.05;93.80;101181.22;5042905;28;20036;-55
2022/06/07 03:12:50;;;;;;;24.23;14.55;;;;;;;12.03;93.49;101188.53;5043129;28;20443;-56
2022/06/07 03:15:15;;;;;;;20.17;14.73;;;;;;;12.02;93.58;101182.38;5041696;28;20024;-55
2022/06/07 03:17:41;;;;;;;21.45;14.10;;;;;;;12.01;93.31;101188.72;5040734;28;20733;-55
2022/06/07 03:20:08;;;;;;;20.20;14.63;;;;;;;11.97;93.35;101190.06;5041911;28;20119;-56
2022/06/07 03:22:35;;;;;;;21.33;13.93;;;;;;;11.97;93.80;101187.41;5038073;28;20032;-57
2022/06/07 03:25:07;;;;;;;20.08;14.55;;;;;;;11.95;93.41;101192.06;5044216;28;20104;-56
2022/06/07 03:27:34;;;;;;;16.65;12.90;;;;;;;11.94;93.53;101189.56;5043171;28;20032;-57
2022/06/07 03:30:00;;;;;;;20.50;14.45;;;;;;;11.97;93.40;101199.88;5042510;28;20488;-55
2022/06/07 03:32:25;;;;;;;17.60;12.98;;;;;;;11.96;93.23;101195.56;5040896;28;20094;-54
2022/06/07 03:34:52;;;;;;;22.30;13.93;;;;;;;11.96;93.35;101199.03;5042372;28;20023;-55
2022/06/07 03:37:17;;;;;;;20.30;13.05;;;;;;;11.95;93.11;101196.56;5039810;28;20025;-56
2022/06/07 03:39:43;;;;;;;19.90;13.35;;;;;;;11.93;93.14;101198.56;5040902;28;20488;-56
2022/06/07 03:42:08;;;;;;;25.35;12.98;;;;;;;11.96;92.80;101209.69;5041428;28;20020;-56
2022/06/07 03:44:34;;;;;;;19.13;13.02;;;;;;;11.94;92.93;101209.03;5041674;28;20028;-56
2022/06/07 03:46:59;;;;;;;19.88;13.23;;;;;;;11.93;92.99;101207.38;5034548;28;20025;-54
2022/06/07 03:49:24;;;;;;;15.88;12.35;;;;;;;11.94;93.01;101211.69;5039778;28;20374;-53
2022/06/07 03:51:50;;;;;;;18.48;13.35;;;;;;;11.93;93.22;101214.53;5041009;28;20028;-56
2022/06/07 03:54:15;;;;;;;19.58;12.88;;;;;;;11.90;92.93;101217.53;5047193;28;20420;-54
2022/06/07 03:56:41;;;;;;;20.75;13.07;;;;;;;11.87;93.10;101215.22;5040805;28;20043;-56
2022/06/07 03:59:06;;;;;;;21.25;12.57;;;;;;;11.84;93.30;101216.34;5039585;28;20052;-56
2022/06/07 04:01:31;;;;;;;17.75;13.07;;;;;;;11.85;93.49;101214.53;5039001;28;20599;-55
2022/06/07 04:04:02;;;;;;;20.75;12.52;;;;;;;11.83;93.72;101219.19;5043760;28;20025;-56
2022/06/07 04:06:33;;;;;;;15.57;12.10;;;;;;;11.83;93.39;101219.19;5046266;28;20044;-55
2022/06/07 04:08:58;;;;;;;18.52;12.30;;;;;;;11.83;93.53;101217.34;5042029;28;20091;-54
2022/06/07 04:11:26;;;;;;;17.08;12.00;;;;;;;11.84;93.17;101219.03;5043618;28;20057;-56
2022/06/07 04:13:54;;;;;;;20.30;12.23;;;;;;;11.84;92.78;101211.03;5044656;28;20025;-57
2022/06/07 04:16:22;;;;;;;20.23;11.52;;;;;;;11.86;92.91;101216.22;5042865;28;20021;-55
2022/06/07 04:18:48;;;;;;;17.65;11.75;;;;;;;11.86;92.91;101216.22;5043523;28;20029;-55
2022/06/07 04:21:14;;;;;;;17.92;11.20;;;;;;;11.87;92.56;101217.88;5043425;28;20025;-54
2022/06/07 04:23:41;;;;;;;14.95;11.50;;;;;;;11.88;92.22;101220.38;5044387;28;20035;-55
2022/06/07 04:26:08;;;;;;;16.75;12.07;;;;;;;11.90;92.48;101228.19;5043563;28;20056;-55
2022/06/07 04:28:33;;;;;;;17.40;11.80;;;;;;;11.88;92.43;101223.03;5041226;28;20504;-56
2022/06/07 04:30:59;;;;;;;17.73;12.45;;;;;;;11.92;92.29;101228.84;5041400;28;20024;-56
2022/06/07 04:33:24;;;;;;;15.52;12.30;;;;;;;11.91;92.58;101227.19;5046019;28;20635;-55
2022/06/07 04:35:49;;;;;;;18.60;12.00;;;;;;;11.92;92.32;101229.66;5042450;28;20028;-55
2022/06/07 04:38:15;;;;;;;18.75;12.40;;;;;;;11.93;92.09;101231.34;5043588;28;20017;-55
2022/06/07 04:40:42;;;;;;;23.23;12.13;;;;;;;11.93;92.41;101222.50;5043286;28;20024;-56
2022/06/07 04:43:11;;;;;;;21.23;13.20;;;;;;;11.93;92.10;101228.66;5043043;28;20028;-54
2022/06/07 04:45:38;;;;;;;16.08;12.43;;;;;;;11.94;92.14;101227.66;5044437;28;20035;-56
2022/06/07 04:48:09;;;;;;;25.30;12.73;;;;;;;11.95;91.92;101224.00;5044206;28;20098;-56
2022/06/07 04:50:34;;;;;;;17.52;12.68;;;;;;;11.96;91.75;101231.00;5039288;28;20029;-55
2022/06/07 04:52:59;;;;;;;20.90;13.27;;;;;;;11.96;92.03;101225.66;5043220;28;20545;-53
2022/06/07 04:55:25;;;;;;;22.50;13.10;;;;;;;11.99;91.77;101230.66;5039379;28;20035;-55
2022/06/07 04:57:50;;;;;;;21.08;14.13;;;;;;;12.00;91.58;101223.50;5045008;28;20025;-55
2022/06/07 05:00:18;;;;;;;20.52;13.30;;;;;;;12.02;91.41;101229.47;5042138;28;20051;-53
2022/06/07 05:02:44;;;;;;;19.13;13.27;;;;;;;12.05;91.61;101229.13;5040546;28;20025;-54
2022/06/07 05:05:12;;;;;;;19.52;13.43;;;;;;;12.08;91.47;101226.13;5043660;28;20166;-53
2022/06/07 05:07:37;;;;;;;21.40;13.70;;;;;;;12.10;91.39;101226.78;5042774;28;20393;-55
2022/06/07 05:10:05;;;;;;;17.73;13.80;;;;;;;12.11;91.42;101228.44;5043234;28;20029;-56
2022/06/07 05:12:32;;;;;;;19.48;14.55;;;;;;;12.18;91.28;101234.75;5042323;28;20038;-56
2022/06/07 05:14:59;;;;;;;21.95;14.00;;;;;;;12.21;91.31;101237.06;5042640;28;20102;-55
2022/06/07 05:17:24;;;;;;;26.02;14.73;;;;;;;12.28;91.70;101243.38;5040315;28;20507;-54
2022/06/07 05:19:49;;;;;;;21.33;14.18;;;;;;;12.30;91.17;101236.03;5044734;28;20057;-55
2022/06/07 05:22:16;;;;;;;20.33;14.35;;;;;;;12.31;91.03;101234.22;5043732;28;20128;-56
2022/06/07 05:24:41;;;;;;;19.75;14.40;;;;;;;12.34;91.31;101233.84;5042443;28;20168;-55
2022/06/07 05:27:10;;;;;;;20.73;14.93;;;;;;;12.35;91.46;101232.84;5041402;28;20113;-55
2022/06/07 05:29:48;;;;;;;21.30;15.13;;;;;;;12.37;91.20;101239.66;5040440;28;20032;-56
2022/06/07 05:32:15;;;;;;;25.10;16.02;;;;;;;12.39;91.30;101235.00;5038592;28;20040;-55
2022/06/07 05:34:40;;;;;;;26.30;17.23;;;;;;;12.41;90.96;101242.81;5043136;28;20056;-53
2022/06/07 05:37:06;;;;;;;27.02;17.45;;;;;;;12.43;91.18;101245.31;5042633;28;20021;-57
2022/06/07 05:39:31;;;;;;;26.17;17.23;;;;;;;12.46;91.20;101245.81;5045961;28;20448;-55
2022/06/07 05:41:57;;;;;;;25.45;17.80;;;;;;;12.48;91.58;101250.97;5043354;28;20104;-55
2022/06/07 05:44:24;;;;;;;27.60;17.70;;;;;;;12.46;91.12;101253.81;5042263;28;20045;-54
2022/06/07 05:46:52;;;;;;;32.15;17.50;;;;;;;12.46;91.26;101251.13;5042498;28;20028;-55
2022/06/07 05:49:18;;;;;;;27.35;18.42;;;;;;;12.48;91.25;101251.78;5047011;28;20033;-55
2022/06/07 05:51:44;;;;;;;25.25;17.77;;;;;;;12.48;91.02;101245.63;5049479;28;20103;-55
2022/06/07 05:54:11;;;;;;;26.33;17.35;;;;;;;12.52;91.45;101249.63;5047864;28;20107;-54
2022/06/07 05:56:37;;;;;;;24.90;17.63;;;;;;;12.52;91.38;101255.78;5042404;28;20035;-55
2022/06/07 05:59:05;;;;;;;25.50;17.20;;;;;;;12.55;91.53;101251.94;5045159;28;20029;-55
2022/06/07 06:01:31;;;;;;;29.15;18.00;;;;;;;12.55;91.50;101251.94;5040705;28;20032;-55
2022/06/07 06:03:56;;;;;;;28.35;18.00;;;;;;;12.56;91.48;101258.91;5043259;28;20036;-56
2022/06/07 06:06:22;;;;;;;29.75;18.67;;;;;;;12.56;91.34;101249.09;5039030;28;20472;-55
2022/06/07 06:11:32;;;;;;;28.92;18.33;;;;;;;12.63;91.48;101258.03;5042016;28;20036;-53
2022/06/07 06:13:57;;;;;;;26.02;17.25;;;;;;;12.65;91.41;101257.88;5047956;28;20499;-55
2022/06/07 06:16:24;;;;;;;27.20;18.70;;;;;;;12.69;91.80;101259.19;5042113;28;20028;-55
2022/06/07 06:18:52;;;;;;;29.10;18.85;;;;;;;12.71;91.87;101259.81;5035835;28;20420;-56
2022/06/07 06:21:20;;;;;;;28.23;18.27;;;;;;;12.75;91.60;101263.00;5038409;28;20024;-56
2022/06/07 06:23:45;;;;;;;30.58;19.20;;;;;;;12.79;92.07;101258.97;5046538;28;20518;-55
2022/06/07 06:26:13;;;;;;;30.77;19.35;;;;;;;12.80;91.82;101253.47;5049046;28;20028;-54
2022/06/07 06:28:40;;;;;;;30.60;19.00;;;;;;;12.83;91.55;101257.63;5047760;28;20017;-54
2022/06/07 06:31:07;;;;;;;28.30;19.95;;;;;;;12.91;91.77;101262.91;5061208;28;20037;-55
2022/06/07 06:33:40;;;;;;;29.42;19.35;;;;;;;12.95;91.89;101264.22;5054590;28;20020;-52
2022/06/07 06:36:08;;;;;;;37.08;20.45;;;;;;;12.97;91.31;101256.84;5055550;28;20032;-56
2022/06/07 06:38:35;;;;;;;30.73;20.23;;;;;;;13.03;91.48;101261.50;5045114;28;20198;-56
2022/06/07 06:41:12;;;;;;;35.40;21.42;;;;;;;13.07;91.26;101256.66;5039018;28;20384;-55
2022/06/07 06:43:38;;;;;;;34.53;23.15;;;;;;;13.17;91.55;101263.44;5039027;28;20033;-55
2022/06/07 06:46:06;;;;;;;37.28;23.58;;;;;;;13.29;91.96;101255.84;5049090;28;20488;-55
2022/06/07 06:48:31;;;;;;;36.00;22.58;;;;;;;13.39;91.90;101260.97;5055463;28;20021;-55
2022/06/07 06:51:05;;;;;;;37.88;24.23;;;;;;;13.45;92.01;101254.91;5052532;28;20705;-55
2022/06/07 06:53:32;;;;;;;38.10;25.60;;;;;;;13.58;91.96;101257.78;5046904;28;20148;-52
2022/06/07 06:55:57;;;;;;;37.88;24.95;;;;;;;13.60;91.55;101253.94;5055384;28;20070;-54
2022/06/07 06:58:25;;;;;;;36.10;24.23;;;;;;;13.67;91.44;101256.72;5047294;28;20567;-54
2022/06/07 07:01:02;;;;;;;38.42;26.10;;;;;;;13.75;91.31;101261.16;5048940;28;20570;-55
2022/06/07 07:03:28;;;;;;;42.90;26.77;;;;;;;13.88;91.48;101264.03;5047555;28;20029;-55
2022/06/07 07:05:55;;;;;;;39.03;26.05;;;;;;;13.92;91.65;101268.84;5057440;28;20028;-55
2022/06/07 07:08:21;;;;;;;38.97;26.67;;;;;;;13.94;91.25;101266.81;5046818;28;20029;-54
2022/06/07 07:10:46;;;;;;;36.83;25.88;;;;;;;13.98;90.73;101266.44;5053147;28;20031;-54
2022/06/07 07:13:11;;;;;;;39.40;26.58;;;;;;;14.04;90.92;101273.72;5049218;28;20017;-54
2022/06/07 07:15:37;;;;;;;40.92;27.33;;;;;;;14.10;91.14;101270.31;5048309;28;20025;-55
2022/06/07 07:18:02;;;;;;;41.35;27.50;;;;;;;14.15;90.82;101271.41;5045997;28;20029;-55
2022/06/07 07:20:28;;;;;;;39.22;27.88;;;;;;;14.25;91.08;101274.66;5050626;28;20108;-54
2022/06/07 07:22:53;;;;;;;39.53;26.13;;;;;;;14.28;90.14;101273.47;5054552;28;20538;-55
2022/06/07 07:25:18;;;;;;;36.70;27.25;;;;;;;14.29;89.98;101277.78;5048251;28;20272;-56
2022/06/07 07:27:44;;;;;;;41.85;27.15;;;;;;;14.36;90.28;101273.34;5047828;28;20543;-54
2022/06/07 07:30:10;;;;;;;41.08;27.52;;;;;;;14.37;89.40;101280.38;5047781;28;20045;-54
2022/06/07 07:32:35;;;;;;;40.78;29.25;;;;;;;14.39;89.77;101275.66;5050267;28;20023;-55
2022/06/07 07:35:01;;;;;;;39.97;28.83;;;;;;;14.44;89.64;101280.47;5055423;28;20058;-54
2022/06/07 07:37:26;;;;;;;38.65;27.90;;;;;;;14.42;89.12;101271.78;5044945;28;20020;-53
2022/06/07 07:39:53;;;;;;;41.17;28.50;;;;;;;14.46;89.50;101287.31;5050842;28;20020;-53
2022/06/07 07:42:18;;;;;;;39.97;27.42;;;;;;;14.45;88.96;101276.78;5050643;28;20234;-53
2022/06/07 07:44:43;;;;;;;37.95;27.75;;;;;;;14.46;89.05;101275.81;5051710;28;20025;-55
2022/06/07 07:47:09;;;;;;;44.53;29.23;;;;;;;14.52;89.06;101280.41;5048026;28;20107;-52
2022/06/07 07:49:34;;;;;;;39.47;28.98;;;;;;;14.59;88.99;101273.28;5048060;28;20487;-55
2022/06/07 07:52:00;;;;;;;38.65;29.08;;;;;;;14.63;88.88;101266.56;5047838;28;20029;-56
2022/06/07 07:54:25;;;;;;;40.20;29.95;;;;;;;14.68;88.56;101277.50;5054297;28;20016;-54
2022/06/07 07:56:52;;;;;;;41.50;30.75;;;;;;;14.72;88.32;101278.78;5053040;28;20285;-54
2022/06/07 07:59:21;;;;;;;37.28;30.08;;;;;;;14.73;87.68;101266.25;5046945;28;20056;-54
2022/06/07 08:01:49;;;;;;;40.45;30.23;;;;;;;14.76;88.04;101280.09;5048207;28;20009;-53
2022/06/07 08:04:14;;;;;;;39.88;30.50;;;;;;;14.80;88.35;101277.88;5047713;28;20021;-53
2022/06/07 08:06:40;;;;;;;37.28;29.95;;;;;;;14.83;88.33;101277.50;5043793;28;20025;-54
2022/06/07 08:09:08;;;;;;;44.42;31.95;;;;;;;14.89;88.85;101287.44;5052796;28;20404;-56
2022/06/07 08:11:36;;;;;;;41.55;30.20;;;;;;;14.95;88.74;101281.34;5054945;28;20028;-56
2022/06/07 08:14:03;;;;;;;39.05;30.25;;;;;;;15.03;88.36;101278.53;5053023;28;20036;-55
2022/06/07 08:16:28;;;;;;;45.17;32.67;;;;;;;15.06;88.20;101278.19;5047762;28;20025;-55
2022/06/07 08:18:54;;;;;;;38.85;29.92;;;;;;;15.10;87.46;101273.28;5044138;28;20377;-55
2022/06/07 08:21:25;;;;;;;38.58;29.10;;;;;;;15.12;87.38;101273.91;5056487;28;20427;-55
2022/06/07 08:23:50;;;;;;;37.25;30.83;;;;;;;15.21;87.41;101271.94;5052220;28;20388;-55
2022/06/07 08:26:16;;;;;;;39.67;31.00;;;;;;;15.18;86.61;101276.66;5056189;28;20512;-56
2022/06/07 08:28:42;;;;;;;41.33;31.38;;;;;;;15.30;86.80;101266.25;5038300;28;20514;-55
2022/06/07 08:31:16;;;;;;;40.03;29.45;;;;;;;15.40;86.81;101268.63;5056593;28;20024;-57
2022/06/07 08:39:11;;;;;;;41.25;31.73;;;;;;;15.67;86.60;101270.56;5046284;28;20403;-55
2022/06/07 08:42:02;;;;;;;34.42;29.67;;;;;;;15.61;85.06;101282.06;5049336;28;20472;-54
2022/06/07 08:44:29;;;;;;;36.80;30.65;;;;;;;15.53;84.60;101274.09;5040959;28;20046;-56
2022/06/07 08:46:59;;;;;;;36.55;28.80;;;;;;;15.49;83.90;101272.84;5040323;28;20411;-55
2022/06/07 08:49:25;;;;;;;43.03;30.75;;;;;;;15.54;84.48;101272.25;5045993;28;20095;-54
2022/06/07 08:52:08;;;;;;;38.80;30.48;;;;;;;15.66;84.85;101278.78;5046423;28;20059;-56
2022/06/07 08:54:37;;;;;;;34.50;29.00;;;;;;;15.69;84.42;101265.84;5046900;28;20457;-56
2022/06/07 08:57:13;;;;;;;37.92;29.25;;;;;;;15.78;84.00;101269.19;5044684;28;20096;-55
2022/06/07 08:59:38;;;;;;;36.72;26.33;;;;;;;15.84;83.29;101271.09;5050333;28;20017;-56
2022/06/07 09:02:23;;;;;;;37.90;26.83;;;;;;;15.92;83.25;101278.19;5044274;28;22120;-54
2022/06/07 09:04:48;;;;;;;36.78;30.45;;;;;;;15.98;83.23;101272.88;5047030;28;20040;-56
2022/06/07 09:07:17;;;;;;;39.17;30.10;;;;;;;16.03;83.50;101269.59;5049024;28;20039;-55
2022/06/07 09:12:37;;;;;;;40.35;30.00;;;;;;;15.99;83.37;101262.97;5061002;28;20032;-55
2022/06/07 09:15:10;;;;;;;36.90;29.48;;;;;;;16.00;83.61;101262.78;5052323;28;20033;-56
2022/06/07 09:17:40;;;;;;;36.20;29.73;;;;;;;16.02;83.72;101265.25;5051431;28;20047;-56
2022/06/07 09:20:19;;;;;;;36.78;29.40;;;;;;;16.05;83.48;101263.00;5057936;28;20111;-55
2022/06/07 09:22:44;;;;;;;34.92;29.30;;;;;;;16.07;83.79;101270.84;5041645;28;20072;-55
2022/06/07 09:25:19;;;;;;;35.53;29.88;;;;;;;16.09;83.58;101268.81;5045839;28;20068;-55
2022/06/07 09:27:45;;;;;;;37.25;30.00;;;;;;;16.10;83.43;101267.78;5037254;28;20108;-54
2022/06/07 09:30:16;;;;;;;42.85;31.75;;;;;;;16.09;83.40;101272.31;5043063;28;20508;-55
2022/06/07 09:32:42;;;;;;;38.13;29.98;;;;;;;16.09;83.64;101271.47;5040022;28;20075;-54
2022/06/07 09:35:20;;;;;;;37.10;29.10;;;;;;;16.16;83.42;101269.66;5038418;28;20485;-55
2022/06/07 09:37:54;;;;;;;37.13;28.70;;;;;;;16.19;82.75;101268.44;5043615;28;20029;-54
2022/06/07 09:40:26;;;;;;;37.28;28.98;;;;;;;16.18;82.59;101266.78;5048323;28;20246;-54
2022/06/07 09:42:57;;;;;;;38.63;28.17;;;;;;;16.18;82.47;101270.28;5049316;28;20158;-56
2022/06/07 09:45:33;;;;;;;33.60;27.40;;;;;;;16.20;82.56;101268.28;5049654;28;20029;-56
2022/06/07 09:48:18;;;;;;;35.95;26.88;;;;;;;16.23;82.44;101259.00;5054232;28;20025;-55
2022/06/07 09:50:54;;;;;;;34.92;28.83;;;;;;;16.36;82.60;101261.75;5045222;28;20013;-56
2022/06/07 09:53:19;;;;;;;34.72;27.35;;;;;;;16.44;82.41;101266.94;5049224;28;20028;-54
2022/06/07 09:56:06;;;;;;;33.03;27.05;;;;;;;16.51;82.08;101262.47;5062454;28;20023;-54
2022/06/07 09:58:48;;;;;;;33.15;25.45;;;;;;;16.54;81.30;101259.38;5045732;28;20118;-55
2022/06/07 10:01:32;;;;;;;32.05;26.73;;;;;;;16.59;81.91;101261.47;5056645;28;20135;-56
2022/06/07 10:04:13;;;;;;;35.15;25.73;;;;;;;16.58;81.20;101257.94;5047446;28;20044;-55
2022/06/07 10:06:46;;;;;;;28.67;24.13;;;;;;;16.60;80.80;101260.44;5062013;28;20025;-56
2022/06/07 10:09:20;;;;;;;29.65;23.17;;;;;;;16.83;81.17;101254.78;5048115;28;20093;-56
2022/06/07 10:11:46;;;;;;;29.33;21.75;;;;;;;17.09;80.69;101251.34;5044678;28;20054;-57
2022/06/07 10:14:30;;;;;;;25.13;21.70;;;;;;;17.36;80.40;101252.22;5056242;28;20029;-56
2022/06/07 10:17:01;;;;;;;22.33;18.88;;;;;;;17.52;78.27;101259.84;5047581;28;20040;-57
2022/06/07 10:19:43;;;;;;;22.13;17.35;;;;;;;17.68;76.95;101253.28;5041489;28;20071;-56
2022/06/07 10:22:21;;;;;;;22.08;16.77;;;;;;;17.84;76.36;101242.09;5045613;28;20108;-57
2022/06/07 10:25:11;;;;;;;19.50;15.93;;;;;;;18.03;76.26;101252.00;5047279;28;20354;-56
2022/06/07 10:27:56;;;;;;;22.27;16.35;;;;;;;18.06;74.38;101248.06;5052099;28;20159;-55
2022/06/07 10:30:54;;;;;;;15.75;13.98;;;;;;;18.09;73.11;101247.66;5041878;28;20075;-55
2022/06/07 10:33:40;;;;;;;22.30;16.75;;;;;;;18.23;73.59;101236.69;5011203;28;20063;-55
2022/06/07 10:36:24;;;;;;;20.63;15.88;;;;;;;18.43;74.08;101250.03;5046518;28;20040;-56
2022/06/07 10:38:56;;;;;;;17.75;15.88;;;;;;;18.46;73.07;101238.84;5039643;28;20104;-56
2022/06/07 10:41:37;;;;;;;18.05;15.75;;;;;;;18.48;72.61;101239.47;5044103;28;20032;-55
2022/06/07 10:44:12;;;;;;;18.10;13.90;;;;;;;18.30;71.13;101231.28;5042831;28;20098;-56
2022/06/07 10:46:42;;;;;;;16.77;14.43;;;;;;;18.25;71.16;101236.47;5040088;28;20052;-55
2022/06/07 10:49:34;;;;;;;16.77;14.98;;;;;;;18.22;71.50;101235.03;5042570;28;20025;-56
2022/06/07 10:52:21;;;;;;;19.40;14.05;;;;;;;18.30;70.79;101230.44;5042130;28;20340;-55
2022/06/07 10:54:56;;;;;;;17.33;13.35;;;;;;;18.29;70.47;101240.38;5042597;28;20113;-55
2022/06/07 10:57:25;;;;;;;14.15;12.18;;;;;;;18.17;69.42;101223.22;5038698;28;20107;-55
2022/06/07 10:59:52;;;;;;;15.77;13.65;;;;;;;18.16;69.77;101219.72;5042845;28;20035;-56
2022/06/07 11:02:26;;;;;;;15.65;13.98;;;;;;;18.08;69.62;101233.38;5046069;28;20021;-54
2022/06/07 11:10:47;;;;;;;20.30;13.40;;;;;;;18.26;70.83;101221.97;5045121;28;20059;-54
2022/06/07 11:13:29;;;;;;;16.70;12.68;;;;;;;18.42;70.93;101228.75;5055224;28;20016;-56
2022/06/07 11:16:03;;;;;;;15.30;12.73;;;;;;;18.47;70.87;101231.59;5048686;28;20037;-56
2022/06/07 11:18:29;;;;;;;16.95;12.80;;;;;;;18.63;70.74;101217.72;5044756;28;20023;-55
2022/06/07 11:21:01;;;;;;;17.92;12.23;;;;;;;18.83;70.31;101226.53;5053421;28;20033;-55
2022/06/07 11:23:31;;;;;;;15.23;12.38;;;;;;;19.01;69.32;101224.97;5049985;28;20039;-55
2022/06/07 11:26:01;;;;;;;16.60;11.68;;;;;;;18.97;68.64;101227.25;5047516;28;20033;-55
2022/06/07 11:28:33;;;;;;;15.13;11.63;;;;;;;18.98;67.96;101225.38;5047472;28;20067;-55
2022/06/07 11:31:02;;;;;;;17.38;11.02;;;;;;;19.11;68.17;101225.31;5054600;28;20021;-56
2022/06/07 11:33:38;;;;;;;13.57;11.23;;;;;;;19.23;67.61;101217.38;5048473;28;20408;-57
2022/06/07 11:36:12;;;;;;;15.32;10.45;;;;;;;19.27;66.85;101218.56;5048609;28;20025;-53
2022/06/07 11:39:00;;;;;;;13.52;10.82;;;;;;;19.38;66.77;101220.56;5047302;28;20017;-57
2022/06/07 11:41:37;;;;;;;15.57;11.73;;;;;;;19.26;65.57;101217.75;5046592;28;20025;-56
2022/06/07 11:44:24;;;;;;;13.75;10.65;;;;;;;19.43;66.16;101218.03;5050877;28;20166;-57